Yankton, SD (57078)

06:12 AM CST on Φεβρουάριος 08, 2016 (GMT -0600)
IEM | | Change Station
CLOSE
Current Station
Personal Weather Stations
Location: Yankton, SD
Elevation: 1254 ft
Nearby Weather Stations
Active Advisory: Wind Advisory Active Notice: Public Information Statement

Elev 1254 ft 42.89 °N, 97.39 °W | Updated 27 minutes ago

Mostly Cloudy
Νεφελώδης
27 ° F
Feels Like 17 ° F
N
12
Ανεμος Μεταβλητός Ανεμος from ΒΑ
Gusts 0.0 mph

Σήμερα
High -- | Low -- ° F
--% Chance of Precip.
Yesterday
High -- | Low -- ° F
Precip. -- in
Ατμοσφαιρική Πίεση 30.08 in
Ορατότητα 10.0 Μίλια
Σύννεφα Νεφελώδης 4500 ft
Δείκτης Ψυχρότητας 17 ° F
Σημείο Δρόσου 27 ° F
Υγρασία 100%
Rainfall in
Snow Depth Not available.
7:36 AM 5:51 PM
Μηνίσκος, 0% visible
METAR KYKN 081155Z AUTO 32025G32KT 10SM BKN045 M03/M09 A3008 RMK AO1 52017
Ατμοσφαιρική Πίεση 30.08 in
Ορατότητα 10.0 Μίλια
Σύννεφα Νεφελώδης 4500 ft
Δείκτης Ψυχρότητας 17 ° F
Σημείο Δρόσου 27 ° F
Υγρασία 100%
Rainfall in
Snow Depth Not available.
7:36 AM 5:51 PM
Μηνίσκος, 0% visible
METAR KYKN 081155Z AUTO 32025G32KT 10SM BKN045 M03/M09 A3008 RMK AO1 52017

10-Day Weather Forecast

Almanac

Αστρονομία

Feb. 08, 2016 Rise Set
Actual Time
Civil Twilight
Nautical Twilight
Astronomical Twilight
Moon
Length Of Visible Light
Διάρκεια ημέρας
Tomorrow will be .
, % of the Moon is Illuminated

Today's Extremes

State Highs State Lows

Community

WunderPhotos

Upload Photos

1,891,420 photos uploaded!

WunderBlog® & News

Nearby

Air Quality

  Air Quality AQ Index Pollutant
Not available.

Snow Depth

Station Depth Elevation

Earthquake Activity

City Distance Mag. Time & Date
Minimum magnitude displayed is 2.5.

Coastal Water Temperatures

Τοποθεσία Θερμοκρασία

Stations

Nearby Weather Stations

Station Location Temp Δείκτης Ψυχρότητας Σημείο Δρόσου Υγρασία Ανεμος Precip. Elev Ενημερώθηκε Type
                   

Watches & Warnings

Wind Advisory
Issued: 4:08 AM CST Feb. 8, 2016 – National Weather Service

... Wind Advisory now in effect until 5 PM CST this afternoon...

* timing... strong north winds will persist into late afternoon...
then gradually diminish.

* Weather conditions... sustained wind speeds between 25 and 35 mph
are likely... with gusts to 45 mph.

* Snow accumulations/impacts... no accumulating snow is expected
today. However patchy drifting snow may impact travel today.

Precautionary/preparedness actions...

A Wind Advisory is issued when sustained winds are forecast to be
31 to 39 mph or gusts will range between 46 and 57 mph. Winds of
these magnitudes may cause minor property damage without extra
precautions. Motorists in high profile vehicles should use
caution until the winds subside.